Time;durP1;ratioP1;P1;durP2;ratioP2;P2;SDS_P1;SDS_P2;PMS_P1;PMS_P2;Temp;Humidity;BMP_temperature;BMP_pressure;BME280_temperature;BME280_humidity;BME280_pressure;Samples;Min_cycle;Max_cycle;Signal;HPM_P1;HPM_P2
2021/01/28 00:00:27;;;;;;;3.00;1.23;;;12.70;99.90;;;;;;5070485;28;20199;-74
2021/01/28 00:02:54;;;;;;;4.17;1.47;;;12.60;99.90;;;;;;5070186;28;20237;-75
2021/01/28 00:05:22;;;;;;;3.72;1.33;;;12.60;99.90;;;;;;5069946;28;20269;-73
2021/01/28 00:07:49;;;;;;;3.03;1.60;;;12.60;99.90;;;;;;5069585;28;20693;-73
2021/01/28 00:10:18;;;;;;;1.60;1.05;;;12.60;99.90;;;;;;5072163;28;20260;-73
2021/01/28 00:12:46;;;;;;;7.03;2.00;;;12.60;99.90;;;;;;5074119;28;20238;-74
2021/01/28 00:15:13;;;;;;;2.53;1.60;;;12.60;99.90;;;;;;5074102;28;20202;-73
2021/01/28 00:17:40;;;;;;;2.63;1.27;;;12.60;99.90;;;;;;5073650;28;20241;-74
2021/01/28 00:20:12;;;;;;;3.27;1.87;;;12.60;99.90;;;;;;5073855;28;20210;-72
2021/01/28 00:22:38;;;;;;;2.80;1.57;;;12.60;99.90;;;;;;5073199;28;20213;-73
2021/01/28 00:25:06;;;;;;;2.03;1.77;;;12.60;99.90;;;;;;5073722;28;20268;-77
2021/01/28 00:27:34;;;;;;;2.07;1.17;;;12.60;99.90;;;;;;5073133;28;20244;-75
2021/01/28 00:30:00;;;;;;;3.50;1.50;;;12.60;99.90;;;;;;5074298;28;20202;-77
2021/01/28 00:32:26;;;;;;;5.72;1.98;;;12.60;99.90;;;;;;5073817;28;20678;-77
2021/01/28 00:34:53;;;;;;;2.25;1.58;;;12.60;99.90;;;;;;5073331;28;20246;-75
2021/01/28 00:37:19;;;;;;;2.97;1.67;;;12.70;99.90;;;;;;5073301;28;20209;-75
2021/01/28 00:39:47;;;;;;;3.30;1.40;;;12.70;99.90;;;;;;5073186;28;20241;-76
2021/01/28 00:42:13;;;;;;;2.45;1.70;;;12.70;99.90;;;;;;5073807;28;20206;-77
2021/01/28 00:44:40;;;;;;;4.07;1.50;;;12.70;99.90;;;;;;5072972;28;20253;-77
2021/01/28 00:47:07;;;;;;;2.60;1.23;;;12.60;99.90;;;;;;5073597;28;20210;-77
2021/01/28 00:49:33;;;;;;;2.65;1.50;;;12.70;99.90;;;;;;5072842;28;20230;-76
2021/01/28 00:52:00;;;;;;;2.23;1.47;;;12.60;99.90;;;;;;5073697;28;20210;-76
2021/01/28 00:54:26;;;;;;;3.58;1.38;;;12.60;99.90;;;;;;5073410;28;20633;-77
2021/01/28 00:56:53;;;;;;;2.00;1.48;;;12.60;99.90;;;;;;5072914;28;20248;-77
2021/01/28 00:59:19;;;;;;;4.43;1.55;;;12.60;99.90;;;;;;5073410;28;20213;-75
2021/01/28 01:01:46;;;;;;;2.42;1.88;;;12.70;99.90;;;;;;5072537;28;20248;-76
2021/01/28 01:04:13;;;;;;;3.28;1.33;;;12.60;99.90;;;;;;5072852;28;20279;-74
2021/01/28 01:06:39;;;;;;;2.67;1.97;;;12.50;99.90;;;;;;5072518;28;20689;-75
2021/01/28 01:09:06;;;;;;;3.37;1.77;;;12.50;99.90;;;;;;5073340;28;20235;-75
2021/01/28 01:11:32;;;;;;;3.30;1.30;;;12.50;99.90;;;;;;5072931;28;20206;-71
2021/01/28 01:13:59;;;;;;;3.37;1.80;;;12.50;99.90;;;;;;5073002;28;20577;-73
2021/01/28 01:16:26;;;;;;;1.90;1.80;;;12.50;99.90;;;;;;5073105;28;20245;-75
2021/01/28 01:18:53;;;;;;;2.87;1.40;;;12.50;99.90;;;;;;5071898;28;20230;-75
2021/01/28 01:21:20;;;;;;;1.27;1.00;;;12.50;99.90;;;;;;5072074;28;20234;-74
2021/01/28 01:23:46;;;;;;;2.33;1.10;;;12.50;99.90;;;;;;5072368;28;20651;-75
2021/01/28 01:26:13;;;;;;;4.75;2.05;;;12.50;99.90;;;;;;5072853;28;20245;-74
2021/01/28 01:28:39;;;;;;;2.00;1.15;;;12.50;99.90;;;;;;5072540;28;20218;-73
2021/01/28 01:31:05;;;;;;;3.07;1.10;;;12.50;99.90;;;;;;5072635;28;20351;-73
2021/01/28 01:33:32;;;;;;;2.27;1.50;;;12.50;99.90;;;;;;5072236;28;20291;-72
2021/01/28 01:35:59;;;;;;;4.28;0.93;;;12.50;99.90;;;;;;5072496;28;20711;-73
2021/01/28 01:38:26;;;;;;;2.00;1.03;;;12.50;99.90;;;;;;5073107;28;20241;-73
2021/01/28 01:40:55;;;;;;;2.03;1.30;;;12.50;99.90;;;;;;5072115;28;20210;-73
2021/01/28 01:43:21;;;;;;;1.80;1.37;;;12.50;99.90;;;;;;5072392;28;20267;-73
2021/01/28 01:45:49;;;;;;;2.97;1.30;;;12.50;99.90;;;;;;5081845;28;20739;-75
2021/01/28 01:48:20;;;;;;;3.17;1.40;;;12.50;99.90;;;;;;5092055;28;20241;-75
2021/01/28 01:50:54;;;;;;;5.20;1.58;;;12.50;99.90;;;;;;5092132;28;20244;-76
2021/01/28 01:53:25;;;;;;;3.70;1.40;;;12.50;99.90;;;;;;5092533;28;20568;-76
2021/01/28 01:55:56;;;;;;;1.50;1.10;;;12.50;99.90;;;;;;5092061;28;20210;-76
2021/01/28 01:58:48;;;;;;;4.70;1.90;;;12.50;99.90;;;;;;5092186;28;20210;-74
2021/01/28 02:01:16;;;;;;;3.33;0.93;;;12.40;99.90;;;;;;5092079;28;20248;-73
2021/01/28 02:03:43;;;;;;;3.00;1.20;;;12.40;99.90;;;;;;5091917;28;20201;-76
2021/01/28 02:06:21;;;;;;;5.77;2.27;;;12.30;99.90;;;;;;5092155;28;20264;-75
2021/01/28 02:08:51;;;;;;;4.00;1.40;;;12.30;99.90;;;;;;5063609;28;20213;-75
2021/01/28 02:11:18;;;;;;;6.13;1.87;;;12.30;99.90;;;;;;5092017;28;20707;-76
2021/01/28 02:13:46;;;;;;;4.43;1.73;;;12.30;99.90;;;;;;5091546;28;20197;-76
2021/01/28 02:16:15;;;;;;;1.33;1.23;;;12.30;99.90;;;;;;5092311;28;20290;-77
2021/01/28 02:18:44;;;;;;;5.50;1.60;;;12.30;99.90;;;;;;5090829;28;20717;-78
2021/01/28 02:21:25;;;;;;;3.03;1.70;;;12.30;99.90;;;;;;5091948;28;20205;-77
2021/01/28 02:24:30;;;;;;;1.92;1.40;;;12.30;99.90;;;;;;5091225;28;20198;-76
2021/01/28 02:26:58;;;;;;;2.73;1.60;;;12.30;99.90;;;;;;5070591;28;20302;-79
2021/01/28 02:29:24;;;;;;;3.83;1.90;;;12.30;99.90;;;;;;5091734;28;20750;-78
2021/01/28 02:31:54;;;;;;;4.53;1.33;;;12.30;99.90;;;;;;5091150;28;20205;-78
2021/01/28 02:34:21;;;;;;;1.87;1.77;;;12.30;99.90;;;;;;5091604;28;20237;-77
2021/01/28 02:36:50;;;;;;;4.07;1.77;;;12.20;99.90;;;;;;5091552;28;20205;-78
2021/01/28 02:39:19;;;;;;;4.17;1.67;;;12.20;99.90;;;;;;5091330;28;20212;-79
2021/01/28 02:41:53;;;;;;;2.73;1.43;;;12.20;99.90;;;;;;5091348;28;20201;-79
2021/01/28 02:44:21;;;;;;;1.60;1.37;;;12.20;99.90;;;;;;5091272;28;20576;-79
2021/01/28 02:46:47;;;;;;;4.43;2.42;;;12.10;99.90;;;;;;5091133;28;20205;-79
2021/01/28 02:49:16;;;;;;;2.70;1.47;;;12.10;99.90;;;;;;5091412;28;20282;-78
2021/01/28 02:51:43;;;;;;;3.30;1.50;;;12.10;99.90;;;;;;5091415;28;20206;-78
2021/01/28 02:54:10;;;;;;;1.80;1.30;;;12.10;99.90;;;;;;5091380;28;20209;-78
2021/01/28 02:56:36;;;;;;;4.43;1.80;;;12.20;99.90;;;;;;5090850;28;20205;-79
2021/01/28 02:59:04;;;;;;;2.93;1.50;;;12.20;99.90;;;;;;5091292;28;20209;-78
2021/01/28 03:01:32;;;;;;;3.17;1.30;;;12.20;99.90;;;;;;5090664;28;20634;-75
2021/01/28 03:03:59;;;;;;;4.53;1.40;;;12.20;99.90;;;;;;5091416;28;20731;-79
2021/01/28 03:06:25;;;;;;;1.90;1.30;;;12.20;99.90;;;;;;5091313;28;20311;-79
2021/01/28 03:08:52;;;;;;;6.33;1.70;;;12.30;99.90;;;;;;5090727;28;20205;-78
2021/01/28 03:11:18;;;;;;;4.87;1.63;;;12.20;99.90;;;;;;5090998;28;20201;-78
2021/01/28 03:13:45;;;;;;;2.60;1.43;;;12.20;99.90;;;;;;5090659;28;20641;-78
2021/01/28 03:16:11;;;;;;;3.45;1.33;;;12.20;99.90;;;;;;5090703;28;20206;-78
2021/01/28 03:18:38;;;;;;;4.27;1.50;;;12.20;99.90;;;;;;5090305;28;20244;-81
2021/01/28 03:21:05;;;;;;;5.32;1.90;;;12.30;99.90;;;;;;5090797;28;20684;-79
2021/01/28 03:23:31;;;;;;;2.43;1.23;;;12.20;99.90;;;;;;5076606;28;20786;-78
2021/01/28 03:25:58;;;;;;;2.40;1.30;;;12.20;99.90;;;;;;5090890;28;20735;-78
2021/01/28 03:28:24;;;;;;;1.97;1.47;;;12.20;99.90;;;;;;5090805;28;20209;-79
2021/01/28 03:30:51;;;;;;;4.97;1.57;;;12.20;99.90;;;;;;5090178;28;20216;-79
2021/01/28 03:33:20;;;;;;;2.77;1.13;;;12.20;99.90;;;;;;5090416;28;20221;-74
2021/01/28 03:35:48;;;;;;;5.05;1.40;;;12.20;99.90;;;;;;5090119;28;20661;-77
2021/01/28 03:38:16;;;;;;;1.38;1.27;;;12.20;99.90;;;;;;5090765;28;20208;-78
2021/01/28 03:40:43;;;;;;;5.55;1.65;;;12.20;99.90;;;;;;5089860;28;20694;-77
2021/01/28 03:43:09;;;;;;;4.30;1.35;;;12.20;99.90;;;;;;5090899;28;20209;-75
2021/01/28 03:45:36;;;;;;;5.70;1.63;;;12.20;99.90;;;;;;5089249;28;20278;-78
2021/01/28 03:48:03;;;;;;;2.63;1.50;;;12.20;99.90;;;;;;5090863;28;20286;-78
2021/01/28 03:50:31;;;;;;;5.27;2.07;;;12.20;99.90;;;;;;5090914;28;20205;-76
2021/01/28 03:52:59;;;;;;;4.13;1.87;;;12.20;99.90;;;;;;5090760;28;20201;-76
2021/01/28 03:55:26;;;;;;;4.73;1.47;;;12.20;99.90;;;;;;5090753;28;20669;-76
2021/01/28 03:57:53;;;;;;;6.43;1.77;;;12.20;99.90;;;;;;5089741;28;20739;-76
2021/01/28 04:00:23;;;;;;;1.90;1.60;;;12.20;99.90;;;;;;5090324;28;20213;-74
2021/01/28 04:02:49;;;;;;;3.13;1.63;;;12.20;99.90;;;;;;5089759;28;20248;-74
2021/01/28 04:05:17;;;;;;;4.63;1.73;;;12.20;99.90;;;;;;5090481;28;20306;-74
2021/01/28 04:07:43;;;;;;;3.23;1.63;;;12.20;99.90;;;;;;5089954;28;20206;-75
2021/01/28 04:10:15;;;;;;;3.92;2.42;;;12.20;99.90;;;;;;5090018;28;20702;-75
2021/01/28 04:12:41;;;;;;;5.63;1.50;;;12.20;99.90;;;;;;5089706;28;20201;-74
2021/01/28 04:15:09;;;;;;;4.43;1.95;;;12.20;99.90;;;;;;5090206;28;20201;-75
2021/01/28 04:17:36;;;;;;;3.45;2.05;;;12.20;99.90;;;;;;5090126;28;20255;-74
2021/01/28 04:20:04;;;;;;;4.13;1.50;;;12.20;99.90;;;;;;5090372;28;20209;-75
2021/01/28 04:22:31;;;;;;;2.97;1.67;;;12.30;99.90;;;;;;5090184;28;20206;-71
2021/01/28 04:24:57;;;;;;;3.65;1.77;;;12.30;99.90;;;;;;5090083;28;20233;-74
2021/01/28 04:27:24;;;;;;;3.85;1.63;;;12.30;99.90;;;;;;5090266;28;20263;-74
2021/01/28 04:29:51;;;;;;;2.88;1.63;;;12.30;99.90;;;;;;5089710;28;20213;-74
2021/01/28 04:32:17;;;;;;;3.88;1.77;;;12.30;99.90;;;;;;5089893;28;20213;-74
2021/01/28 04:34:44;;;;;;;1.63;1.52;;;12.30;99.90;;;;;;5089640;28;20213;-74
2021/01/28 04:37:10;;;;;;;5.50;1.93;;;12.20;99.90;;;;;;5089768;28;20209;-77
2021/01/28 04:39:37;;;;;;;6.60;2.03;;;12.30;99.90;;;;;;5090033;28;20212;-75
2021/01/28 04:42:05;;;;;;;6.87;1.50;;;12.30;99.90;;;;;;5089943;28;20209;-75
2021/01/28 04:44:32;;;;;;;3.53;2.22;;;12.30;99.90;;;;;;5090062;28;20202;-75
2021/01/28 04:46:59;;;;;;;2.37;1.53;;;12.30;99.90;;;;;;5090021;28;20206;-75
2021/01/28 04:49:27;;;;;;;3.50;1.53;;;12.20;99.90;;;;;;5090112;28;20664;-75
2021/01/28 04:52:00;;;;;;;4.93;1.90;;;12.20;99.90;;;;;;5089791;28;20669;-75
2021/01/28 04:54:32;;;;;;;2.23;1.57;;;12.20;99.90;;;;;;5082975;28;20636;-77
2021/01/28 04:57:05;;;;;;;5.53;2.10;;;12.10;99.90;;;;;;5091966;28;20231;-80
2021/01/28 04:59:35;;;;;;;2.20;1.60;;;12.10;99.90;;;;;;5093614;28;20201;-79
2021/01/28 05:02:05;;;;;;;6.40;2.58;;;12.10;99.90;;;;;;5093720;28;20262;-78
2021/01/28 05:04:36;;;;;;;4.28;2.20;;;12.10;99.90;;;;;;5093013;28;20669;-77
2021/01/28 05:07:03;;;;;;;4.50;2.00;;;12.10;99.90;;;;;;5093508;28;20197;-77
2021/01/28 05:09:29;;;;;;;3.80;1.75;;;12.20;99.90;;;;;;5093294;28;20248;-73
2021/01/28 05:11:58;;;;;;;1.90;1.40;;;12.20;99.90;;;;;;5093029;28;20722;-75
2021/01/28 05:14:26;;;;;;;2.08;1.70;;;12.20;99.90;;;;;;5092966;28;20244;-72
2021/01/28 05:16:55;;;;;;;3.03;1.30;;;12.20;99.90;;;;;;5092865;28;20256;-75
2021/01/28 05:19:37;;;;;;;3.28;1.40;;;12.20;99.90;;;;;;5093027;28;20739;-75
2021/01/28 05:22:10;;;;;;;3.93;1.33;;;12.30;99.90;;;;;;5092976;28;20206;-75
2021/01/28 05:24:42;;;;;;;2.17;1.13;;;12.20;99.90;;;;;;5092446;28;20241;-74
2021/01/28 05:27:16;;;;;;;3.90;2.20;;;12.30;99.90;;;;;;5092853;28;20208;-75
2021/01/28 05:29:43;;;;;;;5.43;1.67;;;12.30;99.90;;;;;;5092501;28;20581;-74
2021/01/28 05:32:31;;;;;;;3.67;1.37;;;12.30;99.90;;;;;;5092700;28;20209;-74
2021/01/28 05:35:23;;;;;;;4.30;1.53;;;12.20;99.90;;;;;;5093276;28;20252;-76
2021/01/28 05:38:07;;;;;;;7.13;1.65;;;12.30;99.90;;;;;;5071425;28;20210;-74
2021/01/28 05:40:34;;;;;;;4.47;1.30;;;12.30;99.90;;;;;;5092135;28;20198;-71
2021/01/28 05:43:01;;;;;;;2.40;1.63;;;12.20;99.90;;;;;;5092784;28;20210;-70
2021/01/28 05:45:34;;;;;;;2.30;1.30;;;12.20;99.90;;;;;;5092607;28;20689;-76
2021/01/28 05:48:24;;;;;;;3.40;1.90;;;12.20;99.90;;;;;;5092619;28;20278;-71
2021/01/28 05:51:06;;;;;;;2.43;1.63;;;12.20;99.90;;;;;;5092009;28;20209;-77
2021/01/28 05:53:33;;;;;;;1.87;1.20;;;12.20;99.90;;;;;;5091991;28;20206;-70
2021/01/28 05:56:02;;;;;;;3.10;1.53;;;12.20;99.90;;;;;;5092455;28;20377;-77
2021/01/28 05:58:35;;;;;;;2.17;1.50;;;12.10;99.90;;;;;;5092569;28;20285;-78
2021/01/28 06:01:07;;;;;;;2.63;1.67;;;12.10;99.90;;;;;;5092321;28;20236;-72
2021/01/28 06:04:02;;;;;;;4.33;1.67;;;12.20;99.90;;;;;;5092004;28;20229;-72
2021/01/28 06:07:10;;;;;;;4.77;2.20;;;12.10;99.90;;;;;;5092467;28;20286;-74
2021/01/28 06:09:56;;;;;;;8.68;3.25;;;12.20;99.90;;;;;;5091522;28;20205;-77
2021/01/28 06:12:37;;;;;;;3.53;1.70;;;12.20;99.90;;;;;;5091963;28;20287;-77
2021/01/28 06:15:21;;;;;;;3.27;1.57;;;12.20;99.90;;;;;;5091675;28;20641;-77
2021/01/28 06:18:22;;;;;;;2.13;1.80;;;12.20;99.90;;;;;;5091979;28;20235;-78
2021/01/28 06:21:17;;;;;;;5.07;2.50;;;12.20;99.90;;;;;;5070011;28;20201;-78
2021/01/28 06:24:06;;;;;;;2.57;2.07;;;12.20;99.90;;;;;;5091230;28;20213;-77
2021/01/28 06:26:42;;;;;;;4.27;2.77;;;12.20;99.90;;;;;;5091279;28;20265;-76
2021/01/28 06:29:41;;;;;;;3.70;1.80;;;12.20;99.90;;;;;;5086931;28;20213;-77
2021/01/28 06:32:29;;;;;;;7.60;2.77;;;12.10;99.90;;;;;;5079842;28;20209;-77
2021/01/28 06:35:12;;;;;;;2.57;2.10;;;12.10;99.90;;;;;;5070919;28;20241;-76
2021/01/28 06:37:52;;;;;;;8.13;2.60;;;12.10;99.90;;;;;;5066271;28;20246;-77
2021/01/28 06:40:25;;;;;;;3.53;2.67;;;12.10;99.90;;;;;;5087921;28;20198;-72
2021/01/28 06:42:56;;;;;;;2.63;2.40;;;12.10;99.90;;;;;;5089324;28;20228;-73
2021/01/28 06:45:26;;;;;;;6.47;3.17;;;12.10;99.90;;;;;;5086881;28;20736;-71
2021/01/28 06:47:57;;;;;;;5.73;3.33;;;12.10;99.90;;;;;;5081569;28;20209;-70
2021/01/28 06:50:31;;;;;;;5.63;3.20;;;12.10;99.90;;;;;;5082934;28;20560;-75
2021/01/28 06:53:07;;;;;;;8.67;4.03;;;12.00;99.90;;;;;;5088072;28;20211;-71
2021/01/28 06:55:40;;;;;;;6.30;3.17;;;12.00;99.90;;;;;;5089757;28;20702;-73
2021/01/28 06:58:18;;;;;;;6.20;3.97;;;12.10;99.90;;;;;;5088253;28;20213;-75
2021/01/28 07:00:49;;;;;;;6.57;3.30;;;12.10;99.90;;;;;;5088686;28;20233;-74
2021/01/28 07:03:25;;;;;;;8.25;3.47;;;12.00;99.90;;;;;;5087349;28;20248;-75
2021/01/28 07:05:58;;;;;;;9.37;3.20;;;12.00;99.90;;;;;;5085879;28;20227;-78
2021/01/28 07:08:56;;;;;;;12.80;4.13;;;12.00;99.90;;;;;;5086315;28;20213;-77
2021/01/28 07:11:28;;;;;;;10.67;3.90;;;12.00;99.90;;;;;;5082217;28;20202;-78
2021/01/28 07:13:55;;;;;;;7.97;2.95;;;12.00;99.90;;;;;;5077079;28;20213;-73
2021/01/28 07:16:34;;;;;;;7.37;3.70;;;12.00;99.90;;;;;;5073366;28;20218;-76
2021/01/28 07:19:14;;;;;;;8.40;2.60;;;12.00;99.90;;;;;;5084463;28;20209;-78
2021/01/28 07:21:46;;;;;;;5.90;2.78;;;12.00;99.90;;;;;;5080311;28;20206;-79
2021/01/28 07:24:30;;;;;;;6.20;3.17;;;12.00;99.90;;;;;;5078062;28;20210;-76
2021/01/28 07:26:58;;;;;;;4.00;2.60;;;12.00;99.90;;;;;;5073987;28;20236;-78
2021/01/28 07:29:56;;;;;;;4.93;2.70;;;12.00;99.90;;;;;;5078721;28;20202;-78
2021/01/28 07:32:51;;;;;;;5.37;2.77;;;12.10;99.90;;;;;;5058986;28;20216;-74
2021/01/28 07:35:41;;;;;;;7.13;2.83;;;12.10;99.90;;;;;;5078135;28;20670;-76
2021/01/28 07:38:39;;;;;;;2.93;1.97;;;12.20;99.90;;;;;;5067083;28;20199;-71
2021/01/28 07:41:38;;;;;;;3.93;2.20;;;12.20;99.90;;;;;;5063138;28;20225;-72
2021/01/28 07:44:31;;;;;;;5.47;2.17;;;12.20;99.90;;;;;;5078042;28;20563;-74
2021/01/28 07:46:58;;;;;;;5.68;2.30;;;12.30;99.90;;;;;;5068663;28;20227;-71
2021/01/28 07:49:27;;;;;;;2.87;1.80;;;12.30;99.90;;;;;;5076802;28;20677;-72
2021/01/28 07:52:37;;;;;;;4.23;2.10;;;12.40;99.90;;;;;;5065601;28;20210;-78
2021/01/28 07:55:05;;;;;;;6.90;2.50;;;12.50;99.90;;;;;;5049608;28;20201;-76
2021/01/28 07:57:46;;;;;;;4.20;2.23;;;12.50;99.90;;;;;;5090659;28;20255;-73
2021/01/28 08:00:18;;;;;;;3.65;2.05;;;12.50;99.90;;;;;;5065735;28;20212;-77
2021/01/28 08:02:45;;;;;;;4.43;2.00;;;12.60;99.90;;;;;;5089769;28;20551;-76
2021/01/28 08:05:19;;;;;;;2.93;1.93;;;12.70;99.90;;;;;;5089951;28;20233;-76
2021/01/28 08:08:01;;;;;;;4.63;2.22;;;12.60;99.90;;;;;;5089901;28;20212;-76
2021/01/28 08:10:31;;;;;;;5.35;2.13;;;12.70;99.90;;;;;;5090530;28;20702;-73
2021/01/28 08:13:02;;;;;;;9.23;2.90;;;12.60;99.90;;;;;;5090477;28;20255;-75
2021/01/28 08:15:33;;;;;;;4.97;1.63;;;12.60;99.90;;;;;;5068630;28;20233;-77
2021/01/28 08:18:02;;;;;;;6.25;3.65;;;12.70;99.90;;;;;;5069178;28;20205;-75
2021/01/28 08:20:31;;;;;;;2.60;2.03;;;12.70;99.90;;;;;;5063570;28;20203;-77
2021/01/28 08:23:01;;;;;;;3.38;2.08;;;12.80;99.90;;;;;;5063044;28;20206;-77
2021/01/28 08:25:32;;;;;;;4.75;2.17;;;12.80;99.90;;;;;;5072283;28;20315;-78
2021/01/28 08:28:15;;;;;;;3.45;2.00;;;12.90;99.90;;;;;;5071655;28;20213;-76
2021/01/28 08:30:42;;;;;;;2.72;1.60;;;13.00;99.90;;;;;;5064847;28;20577;-77
2021/01/28 08:33:14;;;;;;;5.63;3.08;;;13.00;99.90;;;;;;5075659;28;20670;-78
2021/01/28 08:35:44;;;;;;;3.72;1.98;;;13.10;99.90;;;;;;5078198;28;20291;-77
2021/01/28 08:38:16;;;;;;;3.13;1.80;;;13.10;99.90;;;;;;5076889;28;20214;-77
2021/01/28 08:40:47;;;;;;;4.75;2.10;;;13.10;99.90;;;;;;5078287;28;20201;-76
2021/01/28 08:43:19;;;;;;;3.40;1.90;;;13.10;99.90;;;;;;5074788;28;20206;-76
2021/01/28 08:45:46;;;;;;;3.40;1.63;;;13.10;99.90;;;;;;5076993;28;20217;-77
2021/01/28 08:48:15;;;;;;;7.90;2.92;;;13.10;99.90;;;;;;5073227;28;20206;-76
2021/01/28 08:50:42;;;;;;;3.15;2.38;;;13.10;99.90;;;;;;5076262;28;20684;-73
2021/01/28 08:53:17;;;;;;;8.48;2.83;;;13.20;99.90;;;;;;5080889;28;20213;-73
2021/01/28 08:55:44;;;;;;;3.15;2.47;;;13.30;99.90;;;;;;5081866;28;20210;-73
2021/01/28 08:58:17;;;;;;;4.13;2.60;;;13.30;99.90;;;;;;5070040;28;20697;-77
2021/01/28 09:00:47;;;;;;;3.70;1.98;;;13.30;99.90;;;;;;5084878;28;20233;-74
2021/01/28 09:03:20;;;;;;;6.82;2.33;;;13.40;99.90;;;;;;5072347;28;20206;-73
2021/01/28 09:05:46;;;;;;;2.67;2.28;;;13.40;99.90;;;;;;5061528;28;20234;-77
2021/01/28 09:08:26;;;;;;;7.65;3.05;;;13.50;99.90;;;;;;5076658;28;20734;-76
2021/01/28 09:10:52;;;;;;;5.55;2.22;;;13.50;99.90;;;;;;5065598;28;20253;-76
2021/01/28 09:13:24;;;;;;;3.78;2.20;;;13.50;99.90;;;;;;5076165;28;20334;-72
2021/01/28 09:16:08;;;;;;;5.38;2.50;;;13.70;99.90;;;;;;5060113;28;20257;-74
2021/01/28 09:18:37;;;;;;;2.75;2.00;;;14.00;99.90;;;;;;5073811;28;20305;-73
2021/01/28 09:21:10;;;;;;;5.63;3.13;;;14.30;99.90;;;;;;5082910;28;20260;-74
2021/01/28 09:23:36;;;;;;;4.78;2.67;;;14.40;99.90;;;;;;5064321;28;20207;-73
2021/01/28 09:26:12;;;;;;;2.85;2.35;;;14.50;99.90;;;;;;5065424;28;20745;-73
2021/01/28 09:28:40;;;;;;;6.30;2.08;;;14.50;99.90;;;;;;5065845;28;20650;-73
2021/01/28 09:31:24;;;;;;;4.68;2.40;;;14.50;99.90;;;;;;5068799;28;20583;-77
2021/01/28 09:33:50;;;;;;;3.45;1.98;;;14.50;99.90;;;;;;5060564;28;20581;-73
2021/01/28 09:36:19;;;;;;;2.88;1.83;;;14.80;99.90;;;;;;5061272;28;20230;-75
2021/01/28 09:39:07;;;;;;;5.45;2.03;;;14.80;99.90;;;;;;5061709;28;20205;-73
2021/01/28 09:41:38;;;;;;;4.03;2.28;;;15.30;99.90;;;;;;5060845;28;20206;-74
2021/01/28 09:44:29;;;;;;;2.75;2.17;;;15.70;99.90;;;;;;5066669;28;20207;-75
2021/01/28 09:47:17;;;;;;;5.50;1.73;;;16.10;99.90;;;;;;5077122;28;20230;-75
2021/01/28 09:49:45;;;;;;;3.67;1.83;;;17.00;99.90;;;;;;5066530;28;20206;-73
2021/01/28 09:52:18;;;;;;;3.97;2.60;;;17.20;99.90;;;;;;5061919;28;20737;-73
2021/01/28 09:54:44;;;;;;;4.57;1.83;;;17.50;99.90;;;;;;5084034;28;20565;-73
2021/01/28 09:57:11;;;;;;;2.45;1.50;;;18.00;99.90;;;;;;5073277;28;20230;-73
2021/01/28 09:59:38;;;;;;;3.80;2.30;;;18.60;99.90;;;;;;5073222;28;20270;-76
2021/01/28 10:02:06;;;;;;;4.03;1.40;;;18.00;99.90;;;;;;5062158;28;20206;-73
2021/01/28 10:04:32;;;;;;;3.90;1.65;;;19.20;99.90;;;;;;5072560;28;20210;-76
2021/01/28 10:06:58;;;;;;;3.83;2.33;;;20.40;99.90;;;;;;5071935;28;20226;-76
2021/01/28 10:09:25;;;;;;;2.63;1.23;;;20.10;99.90;;;;;;5072008;28;20217;-73
2021/01/28 10:11:51;;;;;;;3.10;1.52;;;18.90;99.90;;;;;;5071534;28;20287;-73
2021/01/28 10:14:18;;;;;;;2.25;1.10;;;18.80;99.90;;;;;;5070273;28;20211;-75
2021/01/28 10:16:45;;;;;;;2.78;1.65;;;19.00;99.90;;;;;;5070983;28;20689;-76
2021/01/28 10:19:12;;;;;;;1.77;1.15;;;19.50;99.90;;;;;;5071537;28;20217;-73
2021/01/28 10:21:41;;;;;;;2.97;1.20;;;19.60;99.90;;;;;;5064677;28;20210;-76
2021/01/28 10:24:07;;;;;;;1.92;1.30;;;19.30;99.90;;;;;;5069428;28;20202;-72
2021/01/28 10:26:34;;;;;;;3.17;1.67;;;18.70;99.90;;;;;;5077606;28;20269;-73
2021/01/28 10:29:00;;;;;;;3.65;1.20;;;17.90;99.90;;;;;;5090710;28;20698;-73
2021/01/28 10:31:27;;;;;;;3.28;1.58;;;17.40;99.90;;;;;;5081981;28;20229;-72
2021/01/28 10:33:54;;;;;;;3.67;2.15;;;16.80;99.90;;;;;;5087730;28;20622;-73
2021/01/28 10:36:20;;;;;;;3.28;2.22;;;17.10;99.90;;;;;;5089551;28;20697;-73
2021/01/28 10:38:47;;;;;;;4.35;1.80;;;17.50;99.90;;;;;;5083113;28;20572;-73
2021/01/28 10:41:13;;;;;;;6.65;3.45;;;17.50;99.90;;;;;;5088453;28;20673;-73
2021/01/28 10:43:40;;;;;;;3.17;1.83;;;17.80;99.90;;;;;;5081874;28;20213;-73
2021/01/28 10:46:06;;;;;;;2.40;1.55;;;18.00;99.90;;;;;;5068716;28;20697;-77
2021/01/28 10:48:33;;;;;;;5.97;1.90;;;17.80;99.90;;;;;;5077447;28;20202;-73
2021/01/28 10:51:00;;;;;;;2.83;1.25;;;17.80;99.90;;;;;;5084928;28;20208;-78
2021/01/28 10:53:26;;;;;;;4.63;1.73;;;17.70;99.90;;;;;;5074121;28;20217;-78
2021/01/28 10:55:53;;;;;;;2.80;1.17;;;17.90;99.90;;;;;;5076830;28;20210;-74
2021/01/28 10:58:21;;;;;;;1.67;1.17;;;17.80;99.90;;;;;;5087940;28;20275;-78
2021/01/28 11:00:48;;;;;;;6.50;2.15;;;18.20;99.90;;;;;;5082890;28;20564;-77
2021/01/28 11:03:15;;;;;;;5.72;1.73;;;18.40;99.90;;;;;;5086653;28;20209;-77
2021/01/28 11:05:41;;;;;;;3.10;1.58;;;18.70;99.90;;;;;;5072322;28;20219;-77
2021/01/28 11:08:09;;;;;;;1.70;1.45;;;18.40;99.90;;;;;;5076075;28;20346;-77
2021/01/28 11:10:37;;;;;;;5.75;1.50;;;18.10;99.90;;;;;;5066438;28;20285;-76
2021/01/28 11:13:05;;;;;;;6.38;1.40;;;18.20;99.90;;;;;;5069091;28;20202;-77
2021/01/28 11:15:36;;;;;;;3.65;0.98;;;17.80;99.90;;;;;;5080803;28;20205;-76
2021/01/28 11:18:03;;;;;;;6.13;1.35;;;17.70;99.90;;;;;;5072738;28;20202;-78
2021/01/28 11:20:30;;;;;;;6.53;1.52;;;17.60;99.90;;;;;;5080940;28;20629;-77
2021/01/28 11:22:58;;;;;;;3.95;1.33;;;17.80;99.90;;;;;;5075745;28;20242;-76
2021/01/28 11:25:27;;;;;;;4.20;1.30;;;17.50;99.90;;;;;;5079920;28;20256;-78
2021/01/28 11:27:54;;;;;;;4.38;1.30;;;17.30;99.90;;;;;;5082337;28;20705;-77
2021/01/28 11:30:23;;;;;;;3.15;1.50;;;17.40;99.90;;;;;;5072689;28;20209;-76
2021/01/28 11:32:50;;;;;;;3.97;1.05;;;17.30;99.90;;;;;;5077610;28;20201;-76
2021/01/28 11:35:19;;;;;;;3.35;1.70;;;17.50;99.90;;;;;;5079432;28;20259;-77
2021/01/28 11:37:47;;;;;;;7.25;1.63;;;17.30;99.90;;;;;;5080357;28;20213;-78
2021/01/28 11:40:14;;;;;;;2.03;1.08;;;17.10;99.90;;;;;;5078294;28;20234;-77
2021/01/28 11:42:42;;;;;;;3.55;1.70;;;17.00;99.90;;;;;;5081972;28;20210;-77
2021/01/28 11:45:09;;;;;;;5.57;2.00;;;17.00;99.90;;;;;;5076795;28;20215;-78
2021/01/28 11:47:37;;;;;;;2.50;1.27;;;17.10;99.90;;;;;;5076641;28;20575;-78
2021/01/28 11:50:04;;;;;;;5.20;1.38;;;17.40;99.90;;;;;;5076459;28;20247;-78
2021/01/28 11:52:31;;;;;;;2.20;1.08;;;17.70;99.90;;;;;;5080932;28;20255;-75
2021/01/28 11:54:57;;;;;;;8.48;1.48;;;18.00;99.90;;;;;;5090416;28;20669;-77
2021/01/28 11:57:24;;;;;;;3.05;1.38;;;18.10;99.90;;;;;;5090205;28;20703;-76
2021/01/28 11:59:51;;;;;;;2.75;1.30;;;18.10;99.90;;;;;;5089860;28;20198;-79
2021/01/28 12:02:18;;;;;;;1.33;1.08;;;17.80;99.90;;;;;;5090709;28;20255;-76
2021/01/28 12:04:44;;;;;;;3.58;0.95;;;17.80;99.90;;;;;;5089734;28;20198;-76
2021/01/28 12:07:11;;;;;;;2.67;1.38;;;17.90;99.90;;;;;;5079242;28;20238;-78
2021/01/28 12:09:37;;;;;;;1.05;0.95;;;17.90;99.90;;;;;;5072755;28;20198;-77
2021/01/28 12:12:04;;;;;;;2.08;1.08;;;17.90;99.90;;;;;;5088585;28;20205;-78
2021/01/28 12:14:30;;;;;;;2.05;1.15;;;17.70;99.90;;;;;;5083302;28;20251;-75
2021/01/28 12:16:58;;;;;;;1.15;1.05;;;17.50;99.90;;;;;;5072343;28;20201;-76
2021/01/28 12:19:24;;;;;;;4.13;1.25;;;17.10;99.90;;;;;;5071939;28;20257;-78
2021/01/28 12:21:51;;;;;;;3.92;1.92;;;16.80;99.90;;;;;;5077605;28;21167;-77
2021/01/28 12:24:17;;;;;;;1.83;1.60;;;16.70;99.90;;;;;;5076766;28;20210;-78
2021/01/28 12:26:43;;;;;;;4.88;1.20;;;16.90;99.90;;;;;;5073351;28;20246;-78
2021/01/28 12:29:10;;;;;;;2.35;1.13;;;17.10;99.90;;;;;;5082497;28;20213;-78
2021/01/28 12:31:36;;;;;;;2.63;1.10;;;17.10;99.90;;;;;;5078125;28;20681;-77
2021/01/28 12:34:04;;;;;;;3.00;1.40;;;17.20;99.90;;;;;;5082467;28;20582;-77
2021/01/28 12:36:30;;;;;;;2.85;1.73;;;17.50;99.90;;;;;;5076443;28;20252;-77
2021/01/28 12:38:57;;;;;;;1.98;1.48;;;17.60;99.90;;;;;;5069405;28;20661;-77
2021/01/28 12:41:23;;;;;;;2.35;1.60;;;17.70;99.90;;;;;;5076120;28;20221;-77
2021/01/28 12:43:50;;;;;;;2.88;1.45;;;17.40;99.90;;;;;;5069772;28;20203;-78
2021/01/28 12:46:17;;;;;;;2.38;1.63;;;17.40;99.90;;;;;;5071439;28;20234;-78
2021/01/28 12:48:43;;;;;;;1.63;0.88;;;17.80;99.90;;;;;;5074301;28;20593;-77
2021/01/28 12:51:11;;;;;;;6.25;0.98;;;18.00;99.90;;;;;;5072800;28;20676;-78
2021/01/28 12:53:37;;;;;;;1.73;1.48;;;18.30;99.90;;;;;;5080133;28;20263;-78
2021/01/28 12:56:04;;;;;;;1.02;0.93;;;18.20;99.90;;;;;;5070497;28;20199;-77
2021/01/28 12:58:30;;;;;;;3.35;1.83;;;17.80;99.90;;;;;;5081502;28;20210;-78
2021/01/28 13:00:57;;;;;;;3.55;1.30;;;17.60;99.90;;;;;;5085384;28;20577;-78
2021/01/28 13:03:23;;;;;;;4.90;1.23;;;17.70;99.90;;;;;;5079892;28;20206;-78
2021/01/28 13:05:50;;;;;;;2.28;1.00;;;17.90;99.90;;;;;;5085772;28;20222;-78